KOSH/OSH METAR and TAF weather

Enter ICAO airport designator
Station Type Date Time Source
KOSH METAR 2022/06/28 14:53 UTC NOAA

KOSH 281453Z 26012G16KT 10SM CLR 25/13 A3014


Station Type Date Time Source
KOSH Decoded METAR 2022/06/28 14:53 UTC NOAA

WITTMAN REGIONAL AIRPORT, WI, United States (KOSH) 43-58N 88-33W 248M
Jun 28, 2022 - 10:53 AM EDT / 2022.06.28 1453 UTC
Wind: from the W (260 degrees) at 14 MPH (12 KT) gusting to 18 MPH (16 KT):0
Visibility: 10 mile(s):0
Sky conditions: clear
Temperature: 77 F (25 C)
Dew Point: 55 F (13 C)
Relative Humidity: 47%
Pressure (altimeter): 30.14 in. Hg (1020 hPa)
ob: KOSH 281453Z 26012G16KT 10SM CLR 25/13 A3014
cycle: 15

Station Type Date Time Source
KOSH TAF 2021/08/04 18:24 UTC NOAA

TAF KOSH 041722Z 0418/0518 VRB04KT P6SM SCT060
FM050200 18005KT P6SM SCT070
FM051200 22005KT P6SM FEW250

Example: see airport list